createdAt,value
2022-12-09T16:40:00.618Z,301.35
2022-12-09T16:42:36.503Z,304.40
2022-12-09T16:45:31.425Z,318.08
2022-12-09T16:48:06.034Z,239.30
2022-12-09T16:50:40.528Z,241.45
2022-12-09T16:53:18.934Z,216.13
2022-12-09T16:55:55.812Z,263.20
2022-12-09T16:58:24.908Z,297.00
2022-12-09T17:00:54.014Z,242.15
2022-12-09T17:03:34.173Z,223.60
2022-12-09T17:06:03.000Z,337.10
2022-12-09T17:08:31.852Z,299.48
2022-12-09T17:11:02.731Z,140.35
2022-12-09T17:13:31.492Z,198.20
2022-12-09T17:16:01.151Z,178.65
2022-12-09T17:18:30.804Z,239.27
2022-12-09T17:21:04.034Z,151.43
2022-12-09T17:23:39.197Z,260.60
2022-12-09T17:26:14.148Z,188.73
2022-12-09T17:28:44.794Z,116.68
2022-12-09T17:31:16.391Z,231.82
2022-12-09T17:33:45.346Z,228.30
2022-12-09T17:36:22.564Z,159.30
2022-12-09T17:38:55.409Z,159.05
2022-12-09T17:41:26.095Z,203.95
2022-12-09T17:44:01.186Z,190.10
2022-12-09T17:46:30.138Z,109.95
2022-12-09T17:49:06.990Z,202.88
2022-12-09T17:51:36.675Z,187.73
2022-12-09T17:54:14.189Z,116.22
2022-12-09T17:56:46.127Z,173.63
2022-12-09T18:01:54.297Z,244.50
2022-12-09T18:04:23.243Z,130.73
2022-12-09T18:06:51.957Z,166.48
2022-12-09T18:09:26.068Z,165.38
2022-12-09T18:11:56.882Z,203.93
2022-12-09T18:14:49.359Z,158.57
2022-12-09T18:17:33.373Z,123.60
2022-12-09T18:20:57.454Z,141.75
2022-12-09T18:23:29.852Z,114.15
2022-12-09T18:26:08.351Z,106.55
2022-12-09T18:28:47.647Z,80.57
2022-12-09T18:31:23.929Z,140.95
2022-12-09T18:33:56.419Z,93.03
2022-12-09T18:36:28.264Z,85.65
2022-12-09T18:41:28.612Z,84.68
2022-12-09T18:44:04.084Z,110.50
2022-12-09T18:46:35.807Z,69.53
2022-12-09T18:49:07.122Z,91.57
2022-12-09T18:51:36.221Z,82.80
2022-12-09T18:54:59.682Z,70.72
2022-12-09T18:57:03.277Z,74.78
2022-12-09T18:59:34.256Z,67.97
2022-12-09T19:02:03.086Z,70.97
2022-12-09T19:04:32.103Z,66.07
2022-12-09T19:07:01.893Z,83.40
2022-12-09T19:09:34.132Z,95.93
2022-12-09T19:12:30.039Z,91.43
2022-12-09T19:14:55.380Z,60.13
2022-12-09T19:17:24.185Z,65.82
2022-12-09T19:19:52.943Z,65.20
2022-12-09T19:22:22.015Z,68.20
2022-12-09T19:24:50.767Z,69.05
2022-12-09T19:27:19.470Z,69.18
2022-12-09T19:29:48.238Z,66.15
2022-12-09T19:32:51.373Z,76.10
2022-12-09T19:35:08.854Z,73.85
2022-12-09T19:37:37.654Z,79.40
2022-12-09T19:40:08.904Z,69.07
2022-12-09T19:42:39.135Z,73.63
2022-12-09T19:45:13.908Z,79.03
2022-12-09T19:47:45.892Z,89.32
2022-12-09T19:50:14.687Z,82.70
2022-12-09T19:52:43.697Z,78.97
2022-12-09T20:11:35.027Z,91.88
2022-12-09T20:14:06.301Z,90.43
2022-12-09T20:16:35.579Z,90.00
2022-12-09T20:19:05.019Z,90.22
2022-12-09T20:21:34.698Z,91.55
2022-12-09T20:24:04.492Z,88.57
2022-12-09T20:26:41.900Z,88.40
2022-12-09T20:29:12.460Z,88.28
2022-12-09T20:31:44.584Z,89.20
2022-12-09T20:34:17.427Z,92.35
2022-12-09T20:36:51.911Z,90.75
2022-12-09T20:39:22.474Z,93.75
2022-12-09T20:41:55.142Z,94.18
2022-12-09T20:44:23.843Z,92.43
2022-12-09T20:47:00.405Z,101.20
2022-12-09T20:49:29.672Z,96.07
2022-12-09T20:51:58.668Z,92.18
2022-12-09T20:54:27.545Z,97.15
2022-12-09T20:56:58.291Z,89.65
2022-12-09T20:59:27.084Z,90.20
2022-12-09T21:01:56.062Z,101.15
2022-12-09T21:04:25.316Z,98.60
2022-12-09T21:06:54.326Z,107.47
2022-12-09T21:09:26.443Z,100.75
2022-12-09T21:11:57.384Z,104.22
2022-12-09T21:14:32.840Z,97.80
2022-12-09T21:17:02.348Z,104.63
2022-12-09T21:19:33.877Z,101.35
2022-12-09T21:22:03.482Z,97.07
2022-12-09T21:24:32.524Z,94.13
2022-12-09T21:27:03.260Z,96.65
2022-12-09T21:29:32.605Z,96.55
2022-12-09T21:32:02.466Z,101.25
2022-12-09T21:34:31.471Z,92.70
2022-12-09T21:37:00.715Z,96.90
2022-12-09T21:39:29.951Z,93.00
2022-12-09T21:41:59.032Z,93.93
2022-12-09T21:44:30.103Z,87.00
2022-12-09T21:47:00.905Z,97.35
2022-12-09T21:49:32.748Z,89.65
2022-12-09T21:54:34.751Z,89.50
2022-12-09T21:57:09.682Z,87.30
2022-12-09T21:59:44.146Z,87.72
2022-12-09T22:02:14.801Z,88.80
2022-12-09T22:04:48.925Z,89.65
2022-12-09T22:07:22.749Z,93.70
2022-12-09T22:09:52.264Z,85.10
2022-12-09T22:12:24.945Z,89.45
2022-12-09T22:14:57.872Z,87.95
2022-12-09T22:17:30.769Z,87.13
2022-12-09T22:20:33.211Z,87.10
2022-12-09T22:22:48.472Z,88.13
2022-12-09T22:25:17.427Z,90.32
2022-12-09T22:27:46.251Z,94.35
2022-12-09T22:30:17.529Z,85.30
2022-12-09T22:32:50.913Z,90.85
2022-12-09T22:35:27.511Z,86.57
2022-12-09T22:37:59.136Z,90.53
2022-12-09T22:42:56.939Z,81.60
2022-12-09T22:45:27.624Z,86.63
2022-12-09T22:47:56.687Z,91.68
2022-12-09T22:50:25.742Z,92.80
2022-12-09T22:52:54.469Z,95.90
2022-12-09T22:55:23.247Z,97.78
2022-12-09T22:57:53.109Z,95.40
2022-12-09T23:00:26.312Z,99.93
2022-12-09T23:02:57.324Z,101.60
2022-12-09T23:05:29.134Z,106.82
2022-12-09T23:08:02.088Z,108.75
2022-12-09T23:10:30.910Z,117.20
2022-12-09T23:12:59.984Z,104.32
2022-12-09T23:15:28.819Z,119.65
2022-12-09T23:17:59.448Z,114.55
2022-12-09T23:20:28.827Z,123.07
2022-12-09T23:22:57.686Z,136.23
2022-12-09T23:25:26.567Z,131.30
2022-12-09T23:27:55.291Z,136.77
2022-12-09T23:30:24.123Z,142.57
2022-12-09T23:32:52.813Z,133.05
2022-12-09T23:35:23.433Z,141.38
2022-12-09T23:37:52.162Z,144.20
2022-12-09T23:40:20.911Z,151.55
2022-12-09T23:42:53.571Z,159.07
2022-12-09T23:45:22.304Z,153.00
2022-12-09T23:47:50.965Z,151.25
2022-12-09T23:50:20.064Z,150.45
2022-12-09T23:52:52.861Z,153.93
2022-12-09T23:55:21.517Z,140.52
2022-12-09T23:57:50.211Z,160.82
